Terminal Aerodrome Forecast
Issued by NWS

Home | Current Version | Previous Version | Text Only | Print | Product List | Glossary On
Versions: 1 2 3 4 5 6 7 8 9 10 11
458
FTUS43 KMPX 280520
TAFRNH
TAF
KRNH 280520Z 2806/2906 26007KT P6SM OVC040
     FM281700 30007KT P6SM SCT035
     FM290000 36005KT P6SM OVC150=

USA.gov is the U.S. government's official web portal to all federal, state and local government web resources and services.